Time;durP1;ratioP1;P1;durP2;ratioP2;P2;SDS_P1;SDS_P2;PMS_P1;PMS_P2;Temp;Humidity;BMP_temperature;BMP_pressure;BME280_temperature;BME280_humidity;BME280_pressure;Samples;Min_cycle;Max_cycle;Signal;HPM_P1;HPM_P2
2022/10/01 00:01:01;;;;;;;1999.90;999.90;;;14.30;99.90;;;;;;5031659;28;20416;-68
2022/10/01 00:03:28;;;;;;;1999.90;999.90;;;14.30;99.90;;;;;;5031531;28;20399;-68
2022/10/01 00:06:04;;;;;;;1999.90;999.90;;;14.30;99.90;;;;;;5031460;28;20427;-69
2022/10/01 00:08:30;;;;;;;1999.90;999.90;;;14.30;99.90;;;;;;5019096;28;20410;-68
2022/10/01 00:10:58;;;;;;;1999.90;999.90;;;14.30;99.90;;;;;;5011820;28;20415;-69
2022/10/01 00:13:24;;;;;;;1999.90;999.90;;;14.20;99.90;;;;;;5011654;28;20420;-69
2022/10/01 00:15:50;;;;;;;1999.90;999.90;;;14.20;99.90;;;;;;5011791;28;20401;-69
2022/10/01 00:18:15;;;;;;;1999.90;999.90;;;14.20;99.90;;;;;;5011500;28;20197;-70
2022/10/01 00:20:42;;;;;;;1999.90;999.90;;;14.10;99.90;;;;;;5011667;28;20180;-69
2022/10/01 00:23:13;;;;;;;1999.90;999.90;;;14.10;99.90;;;;;;5011659;28;20202;-69
2022/10/01 00:25:39;;;;;;;1999.90;999.90;;;14.10;99.90;;;;;;5011899;28;20930;-69
2022/10/01 00:28:05;;;;;;;1999.90;999.90;;;14.00;99.90;;;;;;5011273;28;20960;-69
2022/10/01 00:30:31;;;;;;;1999.90;999.90;;;14.00;99.90;;;;;;5011650;28;20862;-69
2022/10/01 00:32:57;;;;;;;1999.90;999.90;;;14.00;99.90;;;;;;5014460;28;20486;-69
2022/10/01 00:35:23;;;;;;;1999.90;999.90;;;13.90;99.90;;;;;;5015078;28;20442;-69
2022/10/01 00:37:51;;;;;;;1999.90;999.90;;;13.80;99.90;;;;;;5014707;28;20200;-68
2022/10/01 00:40:19;;;;;;;1999.90;999.90;;;13.70;99.90;;;;;;5015187;28;20170;-68
2022/10/01 00:42:45;;;;;;;1999.90;999.90;;;13.70;99.90;;;;;;5015029;28;20413;-68
2022/10/01 00:45:14;;;;;;;1999.90;999.90;;;13.60;99.90;;;;;;5014888;28;20407;-68
2022/10/01 00:48:00;;;;;;;1999.90;999.90;;;13.50;99.90;;;;;;5014414;28;20430;-68
2022/10/01 00:50:33;;;;;;;1999.90;999.90;;;13.40;99.90;;;;;;5014826;28;20949;-68
2022/10/01 00:53:03;;;;;;;1999.90;999.90;;;13.40;99.90;;;;;;5014709;28;20455;-68
2022/10/01 00:55:35;;;;;;;1999.90;999.90;;;13.30;99.90;;;;;;5014753;28;20419;-68
2022/10/01 00:58:02;;;;;;;1999.90;999.90;;;13.20;99.90;;;;;;5014277;28;20852;-68
2022/10/01 01:00:29;;;;;;;1999.90;999.90;;;13.20;99.90;;;;;;5014591;28;20408;-68
2022/10/01 01:02:54;;;;;;;1999.90;999.90;;;13.30;99.90;;;;;;5014614;28;20425;-68
2022/10/01 01:05:20;;;;;;;1999.90;999.90;;;13.20;99.90;;;;;;5014740;28;20412;-68
2022/10/01 01:07:48;;;;;;;1999.90;999.90;;;13.10;99.90;;;;;;5014125;28;20300;-68
2022/10/01 01:10:17;;;;;;;1999.90;999.90;;;13.10;99.90;;;;;;5014428;28;20410;-68
2022/10/01 01:13:02;;;;;;;1999.90;999.90;;;13.00;99.90;;;;;;5014338;28;20456;-68
2022/10/01 01:15:35;;;;;;;1999.90;999.90;;;12.90;99.90;;;;;;5014431;28;21112;-68
2022/10/01 01:18:04;;;;;;;1999.90;999.90;;;12.80;99.90;;;;;;5014235;28;20432;-68
2022/10/01 01:20:41;;;;;;;1999.90;999.90;;;12.80;99.90;;;;;;5014172;28;20507;-68
2022/10/01 01:23:13;;;;;;;1999.90;999.90;;;12.70;99.90;;;;;;5014279;28;20407;-67
2022/10/01 01:25:48;;;;;;;1999.90;999.90;;;12.60;99.90;;;;;;5014131;28;20941;-68
2022/10/01 01:28:30;;;;;;;1999.90;999.90;;;12.60;99.90;;;;;;5013949;28;20956;-68
2022/10/01 01:31:01;;;;;;;1999.90;999.90;;;12.50;99.90;;;;;;5014166;28;20428;-68
2022/10/01 01:33:29;;;;;;;1999.90;999.90;;;12.50;99.90;;;;;;5014084;28;20457;-68
2022/10/01 01:36:18;;;;;;;1999.90;999.90;;;12.50;99.90;;;;;;5013989;28;20487;-69
2022/10/01 01:38:50;;;;;;;1999.90;999.90;;;12.50;99.90;;;;;;5013099;28;20790;-69
2022/10/01 01:41:19;;;;;;;1999.90;999.90;;;12.50;99.90;;;;;;5014849;28;20397;-68
2022/10/01 01:43:47;;;;;;;1999.90;999.90;;;12.50;99.90;;;;;;5014381;28;20402;-68
2022/10/01 01:46:17;;;;;;;1999.90;999.90;;;12.50;99.90;;;;;;5014198;28;20408;-69
2022/10/01 01:48:48;;;;;;;1999.90;999.90;;;12.60;99.90;;;;;;5013714;28;20397;-68
2022/10/01 01:51:16;;;;;;;1999.90;999.90;;;12.50;99.90;;;;;;5013802;28;20404;-69
2022/10/01 01:53:42;;;;;;;1999.90;999.90;;;12.50;99.90;;;;;;5013660;28;20408;-68
2022/10/01 01:56:08;;;;;;;1999.90;999.90;;;12.50;99.90;;;;;;5013301;28;20458;-68
2022/10/01 01:58:36;;;;;;;1999.90;999.90;;;12.50;99.90;;;;;;5013396;28;20173;-68
2022/10/01 02:01:02;;;;;;;1999.90;999.90;;;12.40;99.90;;;;;;5013474;28;20436;-68
2022/10/01 02:03:32;;;;;;;1999.90;999.90;;;12.30;99.90;;;;;;5013480;28;20901;-68
2022/10/01 02:05:57;;;;;;;1999.90;999.90;;;12.30;99.90;;;;;;5013263;28;20420;-68
2022/10/01 02:08:39;;;;;;;1999.90;999.90;;;12.30;99.90;;;;;;5013183;28;20450;-67
2022/10/01 02:11:31;;;;;;;1999.90;999.90;;;12.30;99.90;;;;;;5013347;28;20195;-68
2022/10/01 02:14:24;;;;;;;1999.90;999.90;;;12.30;99.90;;;;;;5002599;28;20480;-69
2022/10/01 02:17:00;;;;;;;1999.90;999.90;;;12.30;99.90;;;;;;5012914;28;20507;-68
2022/10/01 02:19:55;;;;;;;1999.90;999.90;;;12.30;99.90;;;;;;5013194;28;20407;-68
2022/10/01 02:22:41;;;;;;;1999.90;999.90;;;12.30;99.90;;;;;;5013272;28;20404;-69
2022/10/01 02:25:09;;;;;;;1999.90;999.90;;;12.30;99.90;;;;;;5013128;28;20405;-69
2022/10/01 02:27:43;;;;;;;1999.90;999.90;;;12.30;99.90;;;;;;5012786;28;21073;-69
2022/10/01 02:30:11;;;;;;;1999.90;999.90;;;12.40;99.90;;;;;;5012887;28;20410;-69
2022/10/01 02:32:39;;;;;;;1999.90;999.90;;;12.30;99.90;;;;;;5012869;28;20460;-69
2022/10/01 02:35:11;;;;;;;1999.90;999.90;;;12.40;99.90;;;;;;5013095;28;20484;-68
2022/10/01 02:37:39;;;;;;;1999.90;999.90;;;12.30;99.90;;;;;;5012659;28;20431;-68
2022/10/01 02:40:07;;;;;;;1999.90;999.90;;;12.30;99.90;;;;;;5013254;28;20409;-68
2022/10/01 02:42:36;;;;;;;1999.90;999.90;;;12.30;99.90;;;;;;5012738;28;20416;-67
2022/10/01 02:45:03;;;;;;;1999.90;999.90;;;12.30;99.90;;;;;;5012931;28;20416;-68
2022/10/01 02:47:38;;;;;;;1999.90;999.90;;;12.20;99.90;;;;;;5012657;28;20805;-68
2022/10/01 02:50:05;;;;;;;1999.90;999.90;;;12.20;99.90;;;;;;5012710;28;20778;-68
2022/10/01 02:52:44;;;;;;;1999.90;999.90;;;12.10;99.90;;;;;;5012650;28;20961;-67
2022/10/01 02:55:22;;;;;;;1999.90;999.90;;;12.10;99.90;;;;;;5012290;28;20404;-68
2022/10/01 02:57:49;;;;;;;1999.90;999.90;;;12.10;99.90;;;;;;5012291;28;20539;-67
2022/10/01 03:00:20;;;;;;;1999.90;999.90;;;12.10;99.90;;;;;;5012995;28;20446;-68
2022/10/01 03:02:46;;;;;;;1999.90;999.90;;;12.10;99.90;;;;;;5012571;28;20405;-68
2022/10/01 03:05:13;;;;;;;1999.90;999.90;;;12.10;99.90;;;;;;5012453;28;20404;-68
2022/10/01 03:07:39;;;;;;;1999.90;999.90;;;12.20;99.90;;;;;;5012168;28;20424;-68
2022/10/01 03:10:07;;;;;;;1999.90;999.90;;;12.20;99.90;;;;;;5012570;28;20494;-68
2022/10/01 03:12:33;;;;;;;1999.90;999.90;;;12.20;99.90;;;;;;5012201;28;20459;-68
2022/10/01 03:14:59;;;;;;;1999.90;999.90;;;12.20;99.90;;;;;;5012278;28;20444;-68
2022/10/01 03:17:25;;;;;;;1999.90;999.90;;;12.20;99.90;;;;;;5011909;28;20930;-68
2022/10/01 03:19:50;;;;;;;1999.90;999.90;;;12.20;99.90;;;;;;5012464;28;20174;-67
2022/10/01 03:22:21;;;;;;;1999.90;999.90;;;12.20;99.90;;;;;;5012501;28;20169;-68
2022/10/01 03:24:48;;;;;;;1999.90;999.90;;;12.10;99.90;;;;;;5012432;28;20173;-66
2022/10/01 03:27:13;;;;;;;1999.90;999.90;;;12.10;99.90;;;;;;5011980;28;20455;-67
2022/10/01 03:29:39;;;;;;;1999.90;999.90;;;12.10;99.90;;;;;;5012066;28;20443;-67
2022/10/01 03:32:04;;;;;;;1999.90;999.90;;;12.00;99.90;;;;;;5012129;28;20197;-67
2022/10/01 03:34:30;;;;;;;1999.90;999.90;;;12.00;99.90;;;;;;5012204;28;20564;-66
2022/10/01 03:36:55;;;;;;;1999.90;999.90;;;11.90;99.90;;;;;;5011791;28;20188;-67
2022/10/01 03:39:21;;;;;;;1999.90;999.90;;;11.90;99.90;;;;;;5012010;28;20165;-67
2022/10/01 03:41:46;;;;;;;1999.90;999.90;;;12.00;99.90;;;;;;5012082;28;20168;-67
2022/10/01 03:44:12;;;;;;;1999.90;999.90;;;12.00;99.90;;;;;;5012132;28;20228;-68
2022/10/01 03:46:38;;;;;;;1999.90;999.90;;;11.90;99.90;;;;;;5011747;28;20243;-68
2022/10/01 03:49:03;;;;;;;1999.90;999.90;;;12.00;99.90;;;;;;5011862;28;20173;-68
2022/10/01 03:51:30;;;;;;;1999.90;999.90;;;12.00;99.90;;;;;;5011924;28;20201;-67
2022/10/01 03:53:56;;;;;;;1999.90;999.90;;;12.00;99.90;;;;;;5012124;28;20179;-68
2022/10/01 03:56:22;;;;;;;1999.90;999.90;;;12.00;99.90;;;;;;5011668;28;20448;-66
2022/10/01 03:58:48;;;;;;;1999.90;999.90;;;12.00;99.90;;;;;;5011800;28;20415;-66
2022/10/01 04:01:13;;;;;;;1999.90;999.90;;;11.90;99.90;;;;;;5011927;28;20438;-65
2022/10/01 04:03:40;;;;;;;1999.90;999.90;;;12.00;99.90;;;;;;5011910;28;20650;-66
2022/10/01 04:06:06;;;;;;;1999.90;999.90;;;12.00;99.90;;;;;;5011793;28;20181;-66
2022/10/01 04:08:31;;;;;;;1999.90;999.90;;;12.00;99.90;;;;;;5015624;28;20498;-67
2022/10/01 04:10:59;;;;;;;1999.90;999.90;;;12.00;99.90;;;;;;5015565;28;21041;-66
2022/10/01 04:13:25;;;;;;;1999.90;999.90;;;12.10;99.90;;;;;;5015440;28;20189;-66
2022/10/01 04:15:51;;;;;;;1999.90;999.90;;;12.10;99.90;;;;;;5015404;28;20413;-66
2022/10/01 04:18:19;;;;;;;1999.90;999.90;;;12.10;99.90;;;;;;5015200;28;20511;-66
2022/10/01 04:20:45;;;;;;;1999.90;999.90;;;12.10;99.90;;;;;;5015293;28;20180;-66
2022/10/01 04:23:10;;;;;;;1999.90;999.90;;;12.10;99.90;;;;;;5015356;28;20499;-67
2022/10/01 04:25:36;;;;;;;1999.90;999.90;;;12.20;99.90;;;;;;5015312;28;20170;-67
2022/10/01 04:28:04;;;;;;;1999.90;999.90;;;12.10;99.90;;;;;;5014875;28;20890;-67
2022/10/01 04:30:36;;;;;;;1999.90;999.90;;;12.20;99.90;;;;;;5015194;28;20416;-66
2022/10/01 04:33:03;;;;;;;1999.90;999.90;;;12.20;99.90;;;;;;5015051;28;20458;-66
2022/10/01 04:35:29;;;;;;;1999.90;999.90;;;12.30;99.90;;;;;;5015146;28;20410;-67
2022/10/01 04:38:02;;;;;;;1999.90;999.90;;;12.30;99.90;;;;;;5014601;28;20482;-67
2022/10/01 04:40:29;;;;;;;1999.90;999.90;;;12.30;99.90;;;;;;5015213;28;20410;-66
2022/10/01 04:42:55;;;;;;;1999.90;999.90;;;12.40;99.90;;;;;;5014955;28;20423;-67
2022/10/01 04:45:20;;;;;;;1999.90;999.90;;;12.40;99.90;;;;;;5014992;28;20416;-66
2022/10/01 04:47:48;;;;;;;1999.90;999.90;;;12.40;99.90;;;;;;5014552;28;20821;-66
2022/10/01 04:50:15;;;;;;;1999.90;999.90;;;12.50;99.90;;;;;;5014898;28;20173;-66
2022/10/01 04:52:40;;;;;;;1999.90;999.90;;;12.50;99.90;;;;;;5014809;28;21001;-67
2022/10/01 04:55:07;;;;;;;1999.90;999.90;;;12.50;99.90;;;;;;5014803;28;20392;-67
2022/10/01 04:57:33;;;;;;;1999.90;999.90;;;12.50;99.90;;;;;;5014293;28;20581;-67
2022/10/01 05:00:00;;;;;;;1999.90;999.90;;;12.50;99.90;;;;;;5014745;28;20407;-66
2022/10/01 05:02:26;;;;;;;1999.90;999.90;;;12.50;99.90;;;;;;5014651;28;20419;-67
2022/10/01 05:04:51;;;;;;;1999.90;999.90;;;12.60;99.90;;;;;;5014715;28;20400;-66
2022/10/01 05:07:18;;;;;;;1999.90;999.90;;;12.70;99.90;;;;;;5014403;28;20197;-66
2022/10/01 05:09:43;;;;;;;1999.90;999.90;;;12.70;99.90;;;;;;5014536;28;20248;-67
2022/10/01 05:12:09;;;;;;;1999.90;999.90;;;12.70;99.90;;;;;;5014479;28;21077;-66
2022/10/01 05:14:35;;;;;;;1999.90;999.90;;;12.70;99.90;;;;;;5014749;28;20193;-67
2022/10/01 05:17:01;;;;;;;1999.90;999.90;;;12.80;99.90;;;;;;5013795;28;20190;-67
2022/10/01 05:19:28;;;;;;;1999.90;999.90;;;12.80;99.90;;;;;;5014684;28;20166;-67
2022/10/01 05:21:54;;;;;;;1999.90;999.90;;;12.80;99.90;;;;;;5014415;28;20433;-67
2022/10/01 05:24:20;;;;;;;1999.90;999.90;;;12.90;99.90;;;;;;5014384;28;20440;-67
2022/10/01 05:26:46;;;;;;;1999.90;999.90;;;12.90;99.90;;;;;;5013899;28;20954;-67
2022/10/01 05:29:12;;;;;;;1999.90;999.90;;;13.00;99.90;;;;;;5014098;28;20451;-67
2022/10/01 05:31:40;;;;;;;1999.90;999.90;;;13.00;99.90;;;;;;5014472;28;20256;-67
2022/10/01 05:34:07;;;;;;;1999.90;999.90;;;13.00;99.90;;;;;;5014523;28;20412;-66
2022/10/01 05:36:32;;;;;;;1999.90;999.90;;;13.10;99.90;;;;;;5013861;28;20997;-67
2022/10/01 05:38:58;;;;;;;1999.90;999.90;;;13.10;99.90;;;;;;5013985;28;20495;-67
2022/10/01 05:41:23;;;;;;;1999.90;999.90;;;13.20;99.90;;;;;;5013905;28;20175;-66
2022/10/01 05:43:50;;;;;;;1999.90;999.90;;;13.20;99.90;;;;;;5013846;28;20169;-66
2022/10/01 05:46:15;;;;;;;1999.90;999.90;;;13.20;99.90;;;;;;5013942;28;20169;-67
2022/10/01 05:48:41;;;;;;;1999.90;999.90;;;13.30;99.90;;;;;;5013839;28;20505;-67
2022/10/01 05:51:07;;;;;;;1999.90;999.90;;;13.30;99.90;;;;;;5014076;28;20178;-67
2022/10/01 05:53:38;;;;;;;1999.90;999.90;;;13.30;99.90;;;;;;5013645;28;20198;-67
2022/10/01 05:56:05;;;;;;;1999.90;999.90;;;13.40;99.90;;;;;;5013319;28;20252;-66
2022/10/01 05:58:30;;;;;;;1999.90;999.90;;;13.40;99.90;;;;;;5013813;28;20416;-66
2022/10/01 06:00:57;;;;;;;1999.90;999.90;;;13.50;99.90;;;;;;5013684;28;20435;-66
2022/10/01 06:03:24;;;;;;;1999.90;999.90;;;13.60;99.90;;;;;;5013792;28;20907;-66
2022/10/01 06:05:51;;;;;;;1999.90;999.90;;;13.60;99.90;;;;;;5013524;28;20556;-67
2022/10/01 06:08:16;;;;;;;1999.90;999.90;;;13.60;99.90;;;;;;5013137;28;20835;-67
2022/10/01 06:10:42;;;;;;;1999.90;999.90;;;13.60;99.90;;;;;;5013290;28;20466;-66
2022/10/01 06:13:08;;;;;;;1999.90;999.90;;;13.70;99.90;;;;;;5013174;28;20669;-66
2022/10/01 06:15:36;;;;;;;1999.90;999.90;;;13.70;99.90;;;;;;5013278;28;20177;-66
2022/10/01 06:18:10;;;;;;;1999.90;999.90;;;13.60;99.90;;;;;;5013168;28;20647;-67
2022/10/01 06:20:37;;;;;;;1999.90;999.90;;;13.60;99.90;;;;;;5013152;28;20933;-67
2022/10/01 06:23:10;;;;;;;1999.90;999.90;;;13.60;99.90;;;;;;5013072;28;20972;-66
2022/10/01 06:25:37;;;;;;;1999.90;999.90;;;13.60;99.90;;;;;;5012969;28;20445;-67
2022/10/01 06:28:04;;;;;;;1999.90;999.90;;;13.60;99.90;;;;;;5012922;28;20806;-66
2022/10/01 06:30:32;;;;;;;1999.90;999.90;;;13.50;99.90;;;;;;5012441;28;20877;-66
2022/10/01 06:33:02;;;;;;;1999.90;999.90;;;13.60;99.90;;;;;;5012928;28;20464;-67
2022/10/01 06:35:29;;;;;;;1999.90;999.90;;;13.50;99.90;;;;;;5012921;28;20404;-67
2022/10/01 06:37:54;;;;;;;1999.90;999.90;;;13.50;99.90;;;;;;5012561;28;20949;-66
2022/10/01 06:40:20;;;;;;;1999.90;999.90;;;13.50;99.90;;;;;;5012817;28;20417;-67
2022/10/01 06:42:47;;;;;;;1999.90;999.90;;;13.50;99.90;;;;;;5013016;28;20181;-67
2022/10/01 06:45:13;;;;;;;1999.90;999.90;;;13.50;99.90;;;;;;5012852;28;20197;-66
2022/10/01 06:47:39;;;;;;;1999.90;999.90;;;13.50;99.90;;;;;;5012409;28;20477;-67
2022/10/01 06:50:05;;;;;;;1999.90;999.90;;;13.50;99.90;;;;;;5012710;28;20926;-66
2022/10/01 06:52:49;;;;;;;1999.90;999.90;;;13.60;99.90;;;;;;5012580;28;20196;-67
2022/10/01 06:55:20;;;;;;;1999.90;999.90;;;13.60;99.90;;;;;;5012568;28;20911;-66
2022/10/01 06:57:46;;;;;;;1999.90;999.90;;;13.60;99.90;;;;;;5012154;28;20446;-67
2022/10/01 07:00:13;;;;;;;1999.90;999.90;;;13.70;99.90;;;;;;5012598;28;20410;-67
2022/10/01 07:02:39;;;;;;;1999.90;999.90;;;13.70;99.90;;;;;;5012465;28;20409;-66
2022/10/01 07:05:07;;;;;;;1999.90;999.90;;;13.80;99.90;;;;;;5012442;28;20468;-67
2022/10/01 07:07:36;;;;;;;1999.90;999.90;;;13.80;99.90;;;;;;5011990;28;20492;-66
2022/10/01 07:10:06;;;;;;;1999.90;999.90;;;13.80;99.90;;;;;;5012535;28;20791;-66
2022/10/01 07:12:33;;;;;;;1999.90;999.90;;;13.90;99.90;;;;;;5012246;28;20885;-66
2022/10/01 07:14:58;;;;;;;1999.90;999.90;;;14.00;99.90;;;;;;5012444;28;20465;-67
2022/10/01 07:17:24;;;;;;;1999.90;999.90;;;14.00;99.90;;;;;;5012318;28;20430;-67
2022/10/01 07:19:50;;;;;;;1999.90;999.90;;;14.10;99.90;;;;;;5012565;28;20704;-67
2022/10/01 07:22:16;;;;;;;1999.90;999.90;;;14.10;99.90;;;;;;5012573;28;20176;-67
2022/10/01 07:24:42;;;;;;;1999.90;999.90;;;14.20;99.90;;;;;;5012554;28;20191;-67
2022/10/01 07:27:08;;;;;;;1999.90;999.90;;;14.30;99.90;;;;;;5012091;28;20431;-67
2022/10/01 07:29:33;;;;;;;1999.90;999.90;;;14.40;99.90;;;;;;5012551;28;20287;-66
2022/10/01 07:32:00;;;;;;;1999.90;999.90;;;14.40;99.90;;;;;;5012502;28;20197;-67
2022/10/01 07:34:27;;;;;;;1999.90;999.90;;;14.40;99.90;;;;;;5012300;28;20194;-66
2022/10/01 07:36:55;;;;;;;1999.90;999.90;;;14.50;99.90;;;;;;5011852;28;20436;-66
2022/10/01 07:39:21;;;;;;;1999.90;999.90;;;14.60;99.90;;;;;;5011860;28;20507;-66
2022/10/01 07:41:47;;;;;;;1999.90;999.90;;;14.60;99.90;;;;;;5015369;28;20442;-66
2022/10/01 07:44:12;;;;;;;1999.90;999.90;;;14.70;99.90;;;;;;5016074;28;21032;-66
2022/10/01 07:46:38;;;;;;;1999.90;999.90;;;14.60;99.90;;;;;;5015881;28;20552;-67
2022/10/01 07:49:04;;;;;;;1999.90;999.90;;;14.60;99.90;;;;;;5016103;28;20189;-67
2022/10/01 07:51:30;;;;;;;1999.90;999.90;;;14.70;99.90;;;;;;5016045;28;20416;-67
2022/10/01 07:53:57;;;;;;;1999.90;999.90;;;14.80;99.90;;;;;;5016471;28;20911;-67
2022/10/01 07:56:24;;;;;;;1999.90;999.90;;;14.90;99.90;;;;;;5015809;28;20449;-67
2022/10/01 07:58:54;;;;;;;1999.90;999.90;;;14.90;99.90;;;;;;5015626;28;20405;-67
2022/10/01 08:01:20;;;;;;;1999.90;999.90;;;15.00;99.90;;;;;;5015302;28;20428;-67
2022/10/01 08:03:49;;;;;;;1999.90;999.90;;;15.10;99.90;;;;;;5014436;28;20424;-67
2022/10/01 08:06:17;;;;;;;1999.90;999.90;;;15.10;99.90;;;;;;5015632;28;20177;-67
2022/10/01 08:08:42;;;;;;;1999.90;999.90;;;15.10;99.90;;;;;;5015590;28;20467;-67
2022/10/01 08:11:09;;;;;;;1999.90;999.90;;;15.10;99.90;;;;;;5015722;28;20813;-67
2022/10/01 08:13:35;;;;;;;1999.90;999.90;;;15.10;99.90;;;;;;5015631;28;20255;-67
2022/10/01 08:16:03;;;;;;;1999.90;999.90;;;15.20;99.90;;;;;;5015382;28;20409;-67
2022/10/01 08:18:29;;;;;;;1999.90;999.90;;;15.10;99.90;;;;;;5015479;28;20426;-67
2022/10/01 08:20:54;;;;;;;1999.90;999.90;;;15.10;99.90;;;;;;5015785;28;20418;-67
2022/10/01 08:23:20;;;;;;;1999.90;999.90;;;15.10;99.90;;;;;;5015304;28;20320;-68
2022/10/01 08:25:46;;;;;;;1999.90;999.90;;;15.10;99.90;;;;;;5015447;28;20192;-68
2022/10/01 08:28:13;;;;;;;1999.90;999.90;;;15.20;99.90;;;;;;5015017;28;20208;-67
2022/10/01 08:30:41;;;;;;;1999.90;999.90;;;15.10;99.90;;;;;;5015224;28;20551;-67
2022/10/01 08:33:09;;;;;;;1999.90;999.90;;;15.10;99.90;;;;;;5015286;28;20960;-67
2022/10/01 08:35:38;;;;;;;1999.90;999.90;;;15.20;99.90;;;;;;5015088;28;20869;-67
2022/10/01 08:38:05;;;;;;;1999.90;999.90;;;15.20;99.90;;;;;;5014866;28;20459;-67
2022/10/01 08:40:40;;;;;;;1999.90;999.90;;;15.30;99.90;;;;;;5015207;28;20407;-67
2022/10/01 08:43:10;;;;;;;1999.90;999.90;;;15.30;99.90;;;;;;5015111;28;20413;-67
2022/10/01 08:45:43;;;;;;;1999.90;999.90;;;15.40;99.90;;;;;;5014993;28;20416;-67
2022/10/01 08:48:34;;;;;;;1999.90;999.90;;;15.40;99.90;;;;;;5014643;28;20527;-67
2022/10/01 08:51:37;;;;;;;1999.90;999.90;;;15.40;99.90;;;;;;5014896;28;20465;-67
2022/10/01 08:54:45;;;;;;;1999.90;999.90;;;15.40;99.90;;;;;;5014453;28;20420;-68
2022/10/01 08:57:21;;;;;;;1999.90;999.90;;;15.30;99.90;;;;;;4973098;28;20511;-67
2022/10/01 08:59:59;;;;;;;1999.90;999.90;;;15.10;99.90;;;;;;4973408;28;20416;-67
2022/10/01 09:02:26;;;;;;;1999.90;999.90;;;15.10;99.90;;;;;;5000004;28;20424;-66
2022/10/01 09:05:01;;;;;;;1999.90;999.90;;;15.10;99.90;;;;;;5014677;28;20777;-67
2022/10/01 09:07:42;;;;;;;1999.90;999.90;;;15.20;99.90;;;;;;5014263;28;20449;-66
2022/10/01 09:10:26;;;;;;;1999.90;999.90;;;15.20;99.90;;;;;;5014484;28;20426;-67
2022/10/01 09:13:06;;;;;;;1999.90;999.90;;;15.20;99.90;;;;;;5014468;28;21043;-66
2022/10/01 09:15:54;;;;;;;1999.90;999.90;;;15.20;99.90;;;;;;5014446;28;20464;-67
2022/10/01 09:19:10;;;;;;;1999.90;999.90;;;15.20;99.90;;;;;;5014140;28;20902;-67
2022/10/01 09:21:46;;;;;;;1999.90;999.90;;;15.40;99.90;;;;;;4991733;28;20477;-67
2022/10/01 09:24:14;;;;;;;1999.90;999.90;;;15.50;99.90;;;;;;5014487;28;20447;-66
2022/10/01 09:26:47;;;;;;;1999.90;999.90;;;15.60;99.90;;;;;;5013946;28;20514;-66
2022/10/01 09:29:21;;;;;;;1999.90;999.90;;;15.70;99.90;;;;;;5014334;28;20414;-68
2022/10/01 09:31:49;;;;;;;1999.90;999.90;;;15.80;99.90;;;;;;5014255;28;20456;-67
2022/10/01 09:34:24;;;;;;;1999.90;999.90;;;15.90;99.90;;;;;;5012005;28;20417;-67
2022/10/01 09:37:03;;;;;;;1999.90;999.90;;;16.00;99.90;;;;;;5013605;28;20428;-67
2022/10/01 09:39:40;;;;;;;1999.90;999.90;;;16.10;99.90;;;;;;5013834;28;20414;-67
2022/10/01 09:42:06;;;;;;;1999.90;999.90;;;16.30;99.90;;;;;;5013867;28;20486;-68
2022/10/01 09:44:33;;;;;;;1999.90;999.90;;;16.40;99.90;;;;;;5013655;28;20489;-67
2022/10/01 09:46:59;;;;;;;1999.90;999.90;;;16.30;99.90;;;;;;5013319;28;20435;-67
2022/10/01 09:49:44;;;;;;;1999.90;999.90;;;16.50;99.90;;;;;;5013607;28;20491;-68
2022/10/01 09:52:25;;;;;;;1999.90;999.90;;;16.70;99.90;;;;;;5013882;28;20578;-68
2022/10/01 09:55:06;;;;;;;1999.90;999.90;;;16.70;99.90;;;;;;5014507;28;20419;-66
2022/10/01 09:57:39;;;;;;;1999.90;999.90;;;16.80;99.90;;;;;;5013353;28;20444;-67
2022/10/01 10:00:13;;;;;;;1999.90;999.90;;;16.80;99.90;;;;;;5013364;28;20778;-67
2022/10/01 10:02:41;;;;;;;1999.90;999.90;;;16.80;99.90;;;;;;5012874;28;20829;-68
2022/10/01 10:05:17;;;;;;;1999.90;999.90;;;16.90;99.90;;;;;;5012167;28;20775;-67
2022/10/01 10:07:46;;;;;;;1999.90;999.90;;;17.10;99.90;;;;;;5013074;28;20418;-67
2022/10/01 10:10:38;;;;;;;1999.90;999.90;;;17.30;99.90;;;;;;5013162;28;20491;-67
2022/10/01 10:13:06;;;;;;;1999.90;999.90;;;17.10;99.90;;;;;;5013630;28;20853;-67
2022/10/01 10:15:32;;;;;;;1999.90;999.90;;;16.90;99.90;;;;;;5013240;28;20431;-67
2022/10/01 10:18:07;;;;;;;1999.90;999.90;;;16.90;99.90;;;;;;5012861;28;20451;-68
2022/10/01 10:20:39;;;;;;;1999.90;999.90;;;16.90;99.90;;;;;;5012702;28;20165;-67
2022/10/01 10:23:16;;;;;;;1999.90;999.90;;;16.90;99.90;;;;;;5027700;28;20405;-67
2022/10/01 10:25:42;;;;;;;1999.90;999.90;;;16.90;99.90;;;;;;5013245;28;20414;-67
2022/10/01 10:28:22;;;;;;;1999.90;999.90;;;16.90;99.90;;;;;;5013038;28;20430;-68
2022/10/01 10:30:51;;;;;;;1999.90;999.90;;;17.10;99.90;;;;;;5012844;28;20909;-67
2022/10/01 10:33:19;;;;;;;1999.90;999.90;;;17.10;99.90;;;;;;5012888;28;20478;-67
2022/10/01 10:35:45;;;;;;;1999.90;999.90;;;17.00;99.90;;;;;;5012687;28;20897;-67
2022/10/01 10:38:17;;;;;;;1999.90;999.90;;;17.10;99.90;;;;;;5012712;28;20828;-67
2022/10/01 10:40:44;;;;;;;1999.90;999.90;;;17.20;99.90;;;;;;5012796;28;20402;-67
2022/10/01 10:43:24;;;;;;;1999.90;999.90;;;17.20;99.90;;;;;;5012771;28;20410;-67
2022/10/01 10:45:57;;;;;;;1999.90;999.90;;;17.20;99.90;;;;;;5012743;28;20407;-67
2022/10/01 10:48:31;;;;;;;1999.90;999.90;;;17.10;99.90;;;;;;5012350;28;20432;-67
2022/10/01 10:51:02;;;;;;;1999.90;999.90;;;17.30;99.90;;;;;;5012543;28;20403;-67
2022/10/01 10:53:34;;;;;;;1999.90;999.90;;;17.20;99.90;;;;;;5012579;28;20464;-66
2022/10/01 10:56:03;;;;;;;1999.90;999.90;;;17.50;99.90;;;;;;5009529;28;20491;-67
2022/10/01 10:58:41;;;;;;;1999.90;999.90;;;17.60;99.90;;;;;;5011436;28;20748;-67
2022/10/01 11:01:20;;;;;;;1999.90;999.90;;;17.80;99.90;;;;;;5012285;28;20416;-68
2022/10/01 11:03:48;;;;;;;1999.90;999.90;;;17.90;99.90;;;;;;5010230;28;20948;-67
2022/10/01 11:06:17;;;;;;;1999.90;999.90;;;17.90;99.90;;;;;;5010518;28;20961;-66
2022/10/01 11:08:45;;;;;;;1999.90;999.90;;;18.00;99.90;;;;;;5011717;28;20901;-68
2022/10/01 11:11:26;;;;;;;1999.90;999.90;;;18.30;99.90;;;;;;5011816;28;20449;-67
2022/10/01 11:14:22;;;;;;;1999.90;999.90;;;18.60;99.90;;;;;;5011815;28;20417;-68
2022/10/01 11:17:06;;;;;;;1999.90;999.90;;;18.80;99.90;;;;;;5010626;28;20800;-67
2022/10/01 11:19:41;;;;;;;1999.90;999.90;;;19.00;99.90;;;;;;5011795;28;20740;-68
2022/10/01 11:22:13;;;;;;;1999.90;999.90;;;19.00;99.90;;;;;;5012119;28;20467;-67
2022/10/01 11:24:44;;;;;;;1999.90;999.90;;;18.90;99.90;;;;;;5012223;28;20946;-67
2022/10/01 11:27:35;;;;;;;1999.90;999.90;;;18.80;99.90;;;;;;4991778;28;20452;-68
2022/10/01 11:30:09;;;;;;;1999.90;999.90;;;19.10;99.90;;;;;;4991610;28;20415;-68
2022/10/01 11:32:44;;;;;;;1999.90;999.90;;;19.20;99.90;;;;;;4991923;28;20834;-68
2022/10/01 11:35:15;;;;;;;1999.90;999.90;;;19.40;99.90;;;;;;4992690;28;20932;-68
2022/10/01 11:37:50;;;;;;;1999.90;999.90;;;19.30;99.90;;;;;;4994833;28;20574;-68
2022/10/01 11:40:39;;;;;;;1999.90;999.90;;;19.50;99.90;;;;;;5014557;28;20406;-67
2022/10/01 11:43:15;;;;;;;1999.90;999.90;;;20.30;99.90;;;;;;5013044;28;20421;-69
2022/10/01 11:45:44;;;;;;;1999.90;999.90;;;21.30;99.90;;;;;;5012732;28;20408;-68
2022/10/01 11:48:26;;;;;;;1999.90;999.90;;;21.70;99.90;;;;;;5011931;28;20424;-69
2022/10/01 11:50:56;;;;;;;1999.90;999.90;;;21.60;99.90;;;;;;5013976;28;20761;-68
2022/10/01 11:53:32;;;;;;;1999.90;999.90;;;20.70;99.90;;;;;;5011508;28;20484;-68
2022/10/01 11:59:01;;;;;;;1999.90;999.90;;;19.60;99.90;;;;;;5016879;28;20512;-66
2022/10/01 12:01:46;;;;;;;1999.90;999.90;;;19.00;99.90;;;;;;5029051;28;20394;-66
2022/10/01 12:04:31;;;;;;;1999.90;999.90;;;18.50;99.90;;;;;;5029849;28;20406;-66
2022/10/01 12:07:25;;;;;;;1999.90;999.90;;;19.00;99.90;;;;;;5029426;28;20426;-66
2022/10/01 12:09:53;;;;;;;1999.90;999.90;;;19.30;99.90;;;;;;5029052;28;20421;-66
2022/10/01 12:12:28;;;;;;;1999.90;999.90;;;18.90;99.90;;;;;;5024239;28;20481;-66
2022/10/01 12:15:31;;;;;;;1999.90;999.90;;;18.60;99.90;;;;;;5010159;28;20446;-66
2022/10/01 12:18:09;;;;;;;1999.90;999.90;;;18.00;99.90;;;;;;4929359;29;21001;-66